ADDS METAR Data INFO
IDs: Format: Raw Decoded Include TAF

Data at: 1313 UTC 11 Dec 2017

KMER 111255Z AUTO 00000KT 3SM CLR 00/M01 A3029 RMK AO1
KMER 111235Z AUTO 00000KT 3SM 00/00 A3030 RMK AO1
KMER 111215Z AUTO 00000KT 3SM CLR 00/00 A3030 RMK AO1
KMER 111155Z AUTO 00000KT 3SM CLR 00/00 A3030 RMK AO1
KMER 111135Z AUTO 00000KT 5SM CLR 00/00 A3030 RMK AO1
KMER 111115Z AUTO 00000KT 3SM CLR 00/00 A3030 RMK AO1
KMER 111055Z AUTO 00000KT 4SM CLR 00/00 A3030 RMK AO1
KMER 111035Z AUTO 00000KT 5SM CLR 01/00 A3030 RMK AO1
KMER 111015Z AUTO 00000KT 7SM CLR 02/02 A3030 RMK AO1
KMER 110955Z AUTO 00000KT 4SM CLR 01/01 A3030 RMK AO1
KMER 110935Z AUTO 00000KT 4SM CLR 01/01 A3030 RMK AO1
KMER 110915Z AUTO 00000KT 5SM CLR 02/01 A3029 RMK AO1
KMER 110855Z AUTO 00000KT 4SM CLR 01/01 A3029 RMK AO1
KMER 110835Z AUTO 00000KT 3SM CLR 01/00 A3029 RMK AO1
KMER 110815Z AUTO 00000KT 4SM CLR 01/00 A3029 RMK AO1
KMER 110755Z AUTO 00000KT 3SM CLR 01/00 A3029 RMK AO1
KMER 110735Z AUTO 00000KT 4SM CLR 01/00 A3029 RMK AO1
KMER 110715Z AUTO 00000KT 3SM CLR 02/01 A3028 RMK AO1
KMER 110655Z AUTO 00000KT 3SM CLR 02/01 A3028 RMK AO1
KMER 110635Z AUTO 00000KT 4SM CLR 02/02 A3027 RMK AO1
KMER 110615Z AUTO 00000KT 4SM CLR 03/02 A3027 RMK AO1
KMER 110555Z AUTO 00000KT 4SM CLR 02/02 A3027 RMK AO1
KMER 110535Z AUTO 00000KT 4SM CLR 03/02 A3026 RMK AO1
KMER 110515Z AUTO 00000KT 4SM CLR 03/02 A3026 RMK AO1
KMER 110455Z AUTO 00000KT 5SM CLR 03/02 A3025 RMK AO1
KMER 110450Z 00000KT 7SM SKC 03/02 A3025
KMER 110435Z AUTO 00000KT 5SM CLR 03/02 A3025 RMK AO1
KMER 110415Z AUTO 00000KT 5SM CLR 04/02 A3024 RMK AO1
KMER 110355Z AUTO 00000KT 5SM CLR 04/01 A3024 RMK AO1
KMER 110350Z 00000KT 7SM SKC 04/01 A3024
KMER 110335Z AUTO 00000KT 4SM CLR 05/03 A3024 RMK AO1
KMER 110315Z AUTO 00000KT 5SM CLR 06/03 A3024 RMK AO1
KMER 110250Z 00000KT 7SM SKC 06/03 A3024
KMER 110150Z 00000KT 7SM SKC 08/04 A3024
KMER 110050Z 00000KT 7SM SKC 12/04 A3024
KMER 102345Z 00000KT 6SM BR SKC 17/04 A3023
KMER 102245Z 00000KT 6SM BR SKC 19/04 A3023
KMER 102145Z 00000KT 6SM BR SKC 19/04 A3024
KMER 102045Z 00000KT 6SM BR SKC 19/04 A3026
KMER 101945Z 00000KT 6SM BR SKC 15/04 A3030
KMER 101845Z 00000KT 6SM BR SKC 13/04 A3033
KMER 101745Z 00000KT 6SM BR SKC 09/04 A3034
KMER 101645Z 00000KT 4SM BR SKC 05/04 A3034
KMER 101545Z 13008KT 4SM BR SKC 01/00 A3032
KMER 101445Z 13008KT 4SM BR SCT100 00/00 A3032
KMER 101255Z AUTO 00000KT 3SM CLR 00/00 A3030 RMK AO1
KMER 101235Z AUTO 00000KT 4SM CLR 01/01 A3030 RMK AO1
KMER 101215Z AUTO 00000KT 3SM CLR 00/00 A3030 RMK AO1
KMER 101155Z AUTO 00000KT 3SM CLR 00/00 A3030 RMK AO1
KMER 101135Z AUTO 00000KT 3SM CLR 00/00 A3030 RMK AO1
KMER 101115Z AUTO 00000KT 3SM 00/00 A3030 RMK AO1
KMER 101055Z AUTO 00000KT 3SM CLR 00/00 A3031 RMK AO1
KMER 101035Z AUTO 00000KT 2 1/2SM CLR 00/00 A3032 RMK AO1
KMER 101015Z AUTO 00000KT 2 1/2SM 01/01 A3032 RMK AO1
KMER 100955Z AUTO 00000KT 2 1/2SM 01/00 A3032 RMK AO1
KMER 100935Z AUTO 00000KT 3SM CLR 01/00 A3032 RMK AO1
KMER 100915Z AUTO 17003KT 3SM CLR 02/01 A3032 RMK AO1
KMER 100855Z AUTO 00000KT 3SM CLR 01/01 A3032 RMK AO1
KMER 100835Z AUTO 00000KT 3SM CLR 01/00 A3031 RMK AO1
KMER 100815Z AUTO 00000KT 2 1/2SM CLR 02/02 A3032 RMK AO1
KMER 100755Z AUTO 00000KT 2 1/2SM CLR 02/01 A3032 RMK AO1
KMER 100735Z AUTO 00000KT 2 1/2SM CLR 02/01 A3032 RMK AO1
KMER 100715Z AUTO 00000KT 4SM CLR 03/02 A3032 RMK AO1
KMER 100655Z AUTO 00000KT 4SM CLR 03/03 A3032 RMK AO1
KMER 100635Z AUTO 00000KT 3SM CLR 03/02 A3032 RMK AO1
KMER 100615Z AUTO 00000KT 3SM CLR 03/02 A3031 RMK AO1
KMER 100555Z AUTO 00000KT 3SM CLR 03/02 A3031 RMK AO1
KMER 100535Z AUTO 00000KT 4SM CLR 04/02 A3031 RMK AO1
KMER 100515Z AUTO 00000KT 4SM CLR 03/02 A3031 RMK AO1
KMER 100455Z AUTO 00000KT 4SM CLR 04/02 A3031 RMK AO1
KMER 100445Z 30004KT 6SM HZ SKC 04/02 A3031
KMER 100435Z AUTO 00000KT 3SM CLR 04/02 A3031 RMK AO1
KMER 100415Z AUTO 00000KT 4SM CLR 04/02 A3030 RMK AO1
KMER 100355Z AUTO 00000KT 4SM CLR 04/02 A3030 RMK AO1
KMER 100345Z 30004KT 6SM HZ SKC 04/02 A3030
KMER 100335Z AUTO 00000KT 4SM CLR 06/03 A3030 RMK AO1
KMER 100315Z AUTO 00000KT 4SM CLR 07/04 A3030 RMK AO1
KMER 100245Z 30004KT 6SM HZ SKC 07/04 A3030
KMER 100145Z 30004KT 6SM HZ SKC 11/04 A3029